Lincolnshire, Illinois
Current Conditions -  °F | °C
As of 6:45 PM on Monday 24 Nov 2014 (Local Time) from KPWK Reporting Station
Overcast Overcast  
Wind Chill: 14°   Ceiling: 1500
Heat Index: 27°   Visibility: 10mi
Dew Point: 21°   Wind: 17mph
Humidity: 78%   Direction: 260°W
Pressure: 29.67"   Gusts: 29mph
Location:  42.19°N, 87.91°W
Report Text: KPWK 250045Z 26015G25KT 10SM OVC015 M03/M06 A2967 RMK AO2 T10281061
Loading
Personal Weather Stations






























Interactive Weather Map New forecast layout! Learn more

10-Day Weather Forecast

Advertisements
Track Severe Weather on mobile